Orbital elements of FENGYUN 1C DEB
| Launched | 9 May 1999 |
| Flight ended | – |
| Launch site | Taiyuan Space Center, PRC |
| Owner | People's Republic of China |
| NORAD ID | 31628 |
| Date fetched |
Epoch osculation |
Inc. [°] |
Ecc. | RA asc node [hr] |
Arg Peri. [°] |
Mean anom [°] |
Mean motion [rev/day] |
Abs. mag |
| Date fetched |
Epoch osculation |
Inc. [°] |
Ecc. | RA asc node [hr] |
Arg Peri. [°] |
Mean anom [°] |
Mean motion [rev/day] |
Abs. mag |
| 2026 May 05 17:57 | 2026 May 05 10:30:29 | 102.2683 | 0.01654 | 1.9809 | 236.7583 | 121.7618 | 13.87571 | – |
| 2026 May 04 17:57 | 2026 Apr 30 11:06:13 | 102.2692 | 0.01659 | 1.5465 | 248.8092 | 121.7618 | 13.87571 | – |
| 2026 May 03 17:57 | 2026 Apr 30 11:06:13 | 102.2692 | 0.01659 | 1.5465 | 248.8092 | 121.7618 | 13.87571 | – |
| 2026 May 02 17:57 | 2026 Apr 30 11:06:13 | 102.2692 | 0.01659 | 1.5465 | 248.8092 | 121.7618 | 13.87571 | – |
| 2026 May 01 17:56 | 2026 Apr 30 11:06:13 | 102.2692 | 0.01659 | 1.5465 | 248.8092 | 121.7618 | 13.87571 | – |
| 2026 Apr 30 17:56 | 2026 Apr 30 11:06:13 | 102.2692 | 0.01659 | 1.5465 | 248.8092 | 121.7618 | 13.87571 | – |
| 2026 Apr 29 17:57 | 2026 Apr 23 11:14:36 | 102.2690 | 0.01668 | 0.9358 | 265.6696 | 121.7618 | 13.87571 | – |
| 2026 Apr 28 17:56 | 2026 Apr 23 11:14:36 | 102.2690 | 0.01668 | 0.9358 | 265.6696 | 121.7618 | 13.87571 | – |
| 2026 Apr 27 17:58 | 2026 Apr 23 11:14:36 | 102.2690 | 0.01668 | 0.9358 | 265.6696 | 121.7618 | 13.87571 | – |
| 2026 Apr 26 17:58 | 2026 Apr 23 11:14:36 | 102.2690 | 0.01668 | 0.9358 | 265.6696 | 121.7618 | 13.87571 | – |
| 2026 Apr 25 17:58 | 2026 Apr 23 11:14:36 | 102.2690 | 0.01668 | 0.9358 | 265.6696 | 121.7618 | 13.87571 | – |
| 2026 Apr 24 17:59 | 2026 Apr 23 11:14:36 | 102.2690 | 0.01668 | 0.9358 | 265.6696 | 121.7618 | 13.87571 | – |
| 2026 Apr 23 17:57 | 2026 Apr 19 10:19:59 | 102.2694 | 0.01674 | 0.5833 | 275.3574 | 121.7618 | 13.87571 | – |
| 2026 Apr 22 17:57 | 2026 Apr 19 10:19:59 | 102.2694 | 0.01674 | 0.5833 | 275.3574 | 121.7618 | 13.87571 | – |
| 2026 Apr 21 17:57 | 2026 Apr 19 10:19:59 | 102.2694 | 0.01674 | 0.5833 | 275.3574 | 121.7618 | 13.87571 | – |
| 2026 Apr 20 17:57 | 2026 Apr 19 10:19:59 | 102.2694 | 0.01674 | 0.5833 | 275.3574 | 121.7618 | 13.87571 | – |
| 2026 Apr 19 17:58 | 2026 Apr 19 10:19:59 | 102.2694 | 0.01674 | 0.5833 | 275.3574 | 121.7618 | 13.87571 | – |
| 2026 Apr 18 17:56 | 2026 Apr 13 03:46:29 | 102.2694 | 0.01682 | 0.0355 | 290.3455 | 121.7618 | 13.87571 | – |
| 2026 Apr 16 17:57 | 2026 Apr 13 03:46:29 | 102.2694 | 0.01682 | 0.0355 | 290.3455 | 121.7618 | 13.87571 | – |
| 2026 Apr 14 17:57 | 2026 Apr 13 03:46:29 | 102.2694 | 0.01682 | 0.0355 | 290.3455 | 121.7618 | 13.87571 | – |
| 2026 Apr 13 17:57 | 2026 Apr 13 03:46:29 | 102.2694 | 0.01682 | 0.0355 | 290.3455 | 121.7618 | 13.87571 | – |
| 2026 Apr 12 17:57 | 2026 Apr 07 23:10:25 | 102.2686 | 0.01690 | 23.5822 | 302.6659 | 121.7618 | 13.87571 | – |
| 2026 Apr 11 17:57 | 2026 Apr 07 23:10:25 | 102.2686 | 0.01690 | 23.5822 | 302.6659 | 121.7618 | 13.87571 | – |
| 2026 Apr 10 17:58 | 2026 Apr 07 23:10:25 | 102.2686 | 0.01690 | 23.5822 | 302.6659 | 121.7618 | 13.87571 | – |
| 2026 Apr 09 18:01 | 2026 Apr 07 23:10:25 | 102.2686 | 0.01690 | 23.5822 | 302.6659 | 121.7618 | 13.87571 | – |
| 2026 Apr 08 17:57 | 2026 Apr 07 23:10:25 | 102.2686 | 0.01690 | 23.5822 | 302.6659 | 121.7618 | 13.87571 | – |